createdAt,value
2022-12-26T00:00:51.728Z,11.24
2022-12-26T00:03:19.745Z,11.24
2022-12-26T00:05:47.494Z,11.24
2022-12-26T00:08:15.439Z,11.26
2022-12-26T00:10:43.155Z,11.26
2022-12-26T00:13:40.150Z,11.28
2022-12-26T00:15:59.043Z,11.29
2022-12-26T00:18:26.807Z,11.30
2022-12-26T00:20:54.463Z,11.31
2022-12-26T00:23:22.126Z,11.31
2022-12-26T00:25:49.778Z,11.32
2022-12-26T00:28:17.498Z,11.33
2022-12-26T00:30:45.305Z,11.33
2022-12-26T00:33:13.016Z,11.34
2022-12-26T00:35:40.632Z,11.34
2022-12-26T00:38:09.124Z,11.35
2022-12-26T00:40:37.188Z,11.36
2022-12-26T00:43:04.789Z,11.37
2022-12-26T00:45:32.481Z,11.39
2022-12-26T00:48:00.106Z,11.40
2022-12-26T00:50:34.220Z,11.39
2022-12-26T00:53:02.726Z,11.42
2022-12-26T00:55:30.586Z,11.44
2022-12-26T00:57:58.172Z,11.45
2022-12-26T01:00:26.211Z,11.47
2022-12-26T01:02:54.100Z,11.48
2022-12-26T01:05:21.811Z,11.51
2022-12-26T01:08:20.165Z,11.52
2022-12-26T01:10:37.236Z,11.54
2022-12-26T01:13:04.928Z,11.58
2022-12-26T01:15:32.964Z,11.63
2022-12-26T01:18:01.012Z,11.69
2022-12-26T01:20:28.778Z,11.73
2022-12-26T01:22:56.403Z,11.77
2022-12-26T01:25:24.055Z,11.81
2022-12-26T01:27:52.119Z,11.84
2022-12-26T01:30:19.931Z,11.86
2022-12-26T01:32:47.526Z,11.88
2022-12-26T01:35:15.189Z,11.93
2022-12-26T01:37:42.763Z,11.98
2022-12-26T01:40:10.412Z,12.03
2022-12-26T01:42:39.473Z,12.05
2022-12-26T01:45:07.088Z,12.01
2022-12-26T01:47:34.719Z,11.94
2022-12-26T01:50:02.336Z,11.88
2022-12-26T01:52:30.356Z,11.80
2022-12-26T01:54:57.978Z,11.75
2022-12-26T01:57:25.621Z,11.71
2022-12-26T01:59:53.200Z,11.68
2022-12-26T02:02:21.030Z,11.67
2022-12-26T02:05:07.293Z,11.65
2022-12-26T02:07:35.206Z,11.62
2022-12-26T02:10:02.989Z,11.60
2022-12-26T02:12:35.622Z,11.59
2022-12-26T02:15:05.799Z,11.58
2022-12-26T02:17:33.808Z,11.56
2022-12-26T02:20:02.152Z,11.54
2022-12-26T02:22:29.743Z,11.53
2022-12-26T02:24:57.948Z,11.51
2022-12-26T02:27:25.533Z,11.51
2022-12-26T02:29:53.345Z,11.50
2022-12-26T02:32:21.060Z,11.51
2022-12-26T02:34:48.720Z,11.49
2022-12-26T02:37:16.318Z,11.49
2022-12-26T02:39:46.637Z,11.48
2022-12-26T02:42:14.892Z,11.46
2022-12-26T02:45:00.284Z,11.45
2022-12-26T02:47:28.432Z,11.43
2022-12-26T02:50:13.586Z,11.42
2022-12-26T02:52:58.920Z,11.40
2022-12-26T02:55:43.900Z,11.40
2022-12-26T02:58:43.368Z,11.38
2022-12-26T03:01:28.486Z,11.38
2022-12-26T03:04:14.019Z,11.37
2022-12-26T03:06:59.116Z,11.37
2022-12-26T03:09:44.040Z,11.36
2022-12-26T03:12:29.089Z,11.36
2022-12-26T03:14:57.067Z,11.33
2022-12-26T03:17:23.664Z,11.33
2022-12-26T03:20:03.327Z,11.33
2022-12-26T03:22:33.923Z,11.33
2022-12-26T03:25:19.915Z,11.34
2022-12-26T03:27:47.651Z,11.34
2022-12-26T03:30:41.016Z,11.33
2022-12-26T03:33:29.752Z,11.32
2022-12-26T03:35:56.683Z,11.31
2022-12-26T03:38:24.258Z,11.29
2022-12-26T03:41:09.402Z,11.29
2022-12-26T03:43:54.182Z,11.27
2022-12-26T03:46:39.609Z,11.27
2022-12-26T03:49:24.853Z,11.26
2022-12-26T03:52:06.274Z,11.25
2022-12-26T03:54:51.208Z,11.25
2022-12-26T03:57:36.522Z,11.26
2022-12-26T04:00:20.738Z,11.26
2022-12-26T04:03:05.719Z,11.24
2022-12-26T04:05:50.717Z,11.24
2022-12-26T04:08:36.413Z,11.24
2022-12-26T04:11:21.345Z,11.23
2022-12-26T04:14:06.312Z,11.22
2022-12-26T04:16:51.195Z,11.21
2022-12-26T04:19:28.679Z,11.20
2022-12-26T04:22:13.679Z,11.19
2022-12-26T04:24:58.692Z,11.18
2022-12-26T04:27:43.681Z,11.18
2022-12-26T04:30:29.401Z,11.18
2022-12-26T04:33:14.299Z,11.17
2022-12-26T04:35:59.204Z,11.15
2022-12-26T04:38:44.183Z,11.13
2022-12-26T04:41:29.140Z,11.13
2022-12-26T04:44:07.635Z,11.10
2022-12-26T04:46:35.653Z,11.07
2022-12-26T04:49:20.684Z,11.04
2022-12-26T04:51:48.639Z,11.01
2022-12-26T04:54:16.297Z,10.97
2022-12-26T04:56:43.888Z,10.95
2022-12-26T04:59:11.504Z,10.94
2022-12-26T05:01:56.908Z,10.91
2022-12-26T05:04:42.145Z,10.91
2022-12-26T05:07:27.078Z,10.88
2022-12-26T05:09:54.694Z,10.85
2022-12-26T05:12:22.993Z,10.80
2022-12-26T05:14:50.561Z,10.80
2022-12-26T05:17:35.774Z,10.78
2022-12-26T05:20:20.756Z,10.77
2022-12-26T05:23:06.004Z,10.72
2022-12-26T05:25:51.488Z,10.71
2022-12-26T05:28:36.451Z,10.69
2022-12-26T05:31:04.252Z,10.65
2022-12-26T05:33:49.889Z,10.64
2022-12-26T05:36:17.534Z,10.64
2022-12-26T05:38:45.091Z,10.62
2022-12-26T05:41:12.677Z,10.62
2022-12-26T05:43:40.234Z,10.63
2022-12-26T05:46:08.031Z,10.64
2022-12-26T05:48:35.686Z,10.63
2022-12-26T05:51:03.245Z,10.62
2022-12-26T05:53:30.838Z,10.63
2022-12-26T05:55:58.963Z,10.64
2022-12-26T05:58:26.934Z,10.63
2022-12-26T06:00:54.527Z,10.63
2022-12-26T06:03:22.324Z,10.61
2022-12-26T06:05:50.288Z,10.61
2022-12-26T06:08:17.897Z,10.64
2022-12-26T06:10:45.869Z,10.64
2022-12-26T06:13:13.445Z,10.64
2022-12-26T06:15:41.009Z,10.65
2022-12-26T06:18:08.844Z,10.65
2022-12-26T06:20:36.389Z,10.67
2022-12-26T06:23:04.404Z,10.67
2022-12-26T06:25:32.051Z,10.65
2022-12-26T06:27:59.610Z,10.64
2022-12-26T06:30:27.256Z,10.62
2022-12-26T06:32:54.887Z,10.62
2022-12-26T06:35:22.927Z,10.63
2022-12-26T06:37:50.809Z,10.64
2022-12-26T06:40:18.446Z,10.65
2022-12-26T06:42:46.032Z,10.66
2022-12-26T06:45:13.626Z,10.65
2022-12-26T06:47:41.555Z,10.64
2022-12-26T06:50:09.132Z,10.63
2022-12-26T06:52:36.747Z,10.63
2022-12-26T06:55:04.430Z,10.63
2022-12-26T06:57:32.047Z,10.63
2022-12-26T07:00:00.179Z,10.64
2022-12-26T07:02:27.912Z,10.64
2022-12-26T07:04:57.001Z,10.65
2022-12-26T07:07:24.789Z,10.65
2022-12-26T07:09:52.445Z,10.65
2022-12-26T07:12:22.167Z,10.66
2022-12-26T07:14:49.764Z,10.67
2022-12-26T07:17:17.384Z,10.70
2022-12-26T07:19:45.071Z,10.71
2022-12-26T07:22:13.072Z,10.71
2022-12-26T07:24:41.044Z,10.72
2022-12-26T07:27:08.677Z,10.72
2022-12-26T07:29:36.241Z,10.73
2022-12-26T07:32:04.128Z,10.76
2022-12-26T07:34:32.329Z,10.78
2022-12-26T07:37:00.442Z,10.78
2022-12-26T07:39:28.077Z,10.79
2022-12-26T07:41:57.785Z,10.79
2022-12-26T07:44:26.443Z,10.81
2022-12-26T07:46:54.089Z,10.84
2022-12-26T07:49:22.068Z,10.86
2022-12-26T07:51:49.631Z,10.89
2022-12-26T07:54:17.248Z,10.90
2022-12-26T07:56:44.817Z,10.88
2022-12-26T07:59:12.385Z,10.87
2022-12-26T08:01:40.486Z,10.87
2022-12-26T08:04:08.172Z,10.87
2022-12-26T08:06:36.095Z,10.88
2022-12-26T08:09:04.012Z,10.90
2022-12-26T08:11:31.639Z,10.93
2022-12-26T08:13:59.679Z,10.95
2022-12-26T08:16:28.616Z,10.98
2022-12-26T08:18:56.206Z,11.02
2022-12-26T08:21:24.170Z,11.03
2022-12-26T08:23:51.852Z,11.05
2022-12-26T08:26:23.585Z,11.07
2022-12-26T08:28:51.655Z,11.05
2022-12-26T08:31:19.372Z,11.02
2022-12-26T08:33:46.995Z,10.99
2022-12-26T08:36:16.985Z,10.96
2022-12-26T08:38:44.996Z,10.96
2022-12-26T08:41:12.656Z,10.95
2022-12-26T08:44:42.126Z,10.95
2022-12-26T08:46:28.227Z,10.98
2022-12-26T08:48:56.275Z,11.01
2022-12-26T08:51:24.065Z,11.02
2022-12-26T08:53:51.815Z,11.06
2022-12-26T08:56:19.464Z,11.06
2022-12-26T08:58:47.090Z,11.08
2022-12-26T09:01:15.214Z,11.08
2022-12-26T09:03:42.887Z,11.09
2022-12-26T09:06:10.494Z,11.07
2022-12-26T09:08:38.236Z,11.09
2022-12-26T09:11:07.236Z,11.10
2022-12-26T09:13:35.248Z,11.12
2022-12-26T09:16:03.042Z,11.14
2022-12-26T09:18:31.868Z,11.15
2022-12-26T09:20:59.598Z,11.17
2022-12-26T09:23:27.353Z,11.17
2022-12-26T09:25:55.396Z,11.16
2022-12-26T09:28:23.121Z,11.14
2022-12-26T09:30:50.864Z,11.13
2022-12-26T09:33:18.883Z,11.14
2022-12-26T09:35:46.790Z,11.14
2022-12-26T09:38:14.872Z,11.17
2022-12-26T09:40:42.568Z,11.18
2022-12-26T09:43:10.290Z,11.18
2022-12-26T09:45:37.966Z,11.17
2022-12-26T09:48:05.930Z,11.14
2022-12-26T09:50:37.091Z,11.10
2022-12-26T09:53:07.404Z,11.06
2022-12-26T09:55:35.497Z,11.05
2022-12-26T09:58:03.324Z,11.07
2022-12-26T10:00:31.204Z,11.10
2022-12-26T10:02:58.837Z,11.13
2022-12-26T10:05:26.564Z,11.14
2022-12-26T10:07:54.331Z,11.16
2022-12-26T10:10:22.014Z,11.16
2022-12-26T10:12:49.954Z,11.21
2022-12-26T10:15:18.265Z,11.27
2022-12-26T10:17:45.931Z,11.34
2022-12-26T10:20:13.672Z,11.37
2022-12-26T10:22:41.402Z,11.45
2022-12-26T10:25:09.489Z,11.57
2022-12-26T10:27:37.723Z,11.67
2022-12-26T10:30:05.541Z,11.86
2022-12-26T10:32:33.301Z,12.08
2022-12-26T10:35:00.995Z,12.18
2022-12-26T10:37:31.085Z,12.31
2022-12-26T10:39:59.143Z,12.37
2022-12-26T10:42:26.822Z,12.29
2022-12-26T10:44:54.532Z,12.15
2022-12-26T10:47:22.284Z,12.00
2022-12-26T10:49:50.159Z,11.95
2022-12-26T10:52:18.372Z,11.97
2022-12-26T10:54:46.205Z,11.98
2022-12-26T10:57:14.001Z,12.02
2022-12-26T10:59:42.233Z,12.01
2022-12-26T11:02:10.107Z,11.97
2022-12-26T11:05:11.259Z,11.89
2022-12-26T11:07:25.942Z,11.80
2022-12-26T11:09:57.833Z,11.74
2022-12-26T11:12:25.958Z,11.66
2022-12-26T11:14:53.745Z,11.64
2022-12-26T11:17:21.416Z,11.62
2022-12-26T11:19:49.106Z,11.64
2022-12-26T11:22:18.021Z,11.67
2022-12-26T11:24:46.025Z,11.68
2022-12-26T11:27:14.176Z,11.70
2022-12-26T11:29:43.026Z,11.72
2022-12-26T11:32:10.733Z,11.73
2022-12-26T11:34:39.797Z,11.75
2022-12-26T11:37:07.863Z,11.77
2022-12-26T11:39:36.058Z,11.74
2022-12-26T11:42:04.235Z,11.72
2022-12-26T11:44:32.298Z,11.68
2022-12-26T11:47:00.455Z,11.65
2022-12-26T11:49:29.556Z,11.63
2022-12-26T11:51:59.743Z,11.66
2022-12-26T11:54:27.972Z,11.64
2022-12-26T11:56:55.709Z,11.58
2022-12-26T11:59:25.380Z,11.54
2022-12-26T12:01:53.418Z,11.58
2022-12-26T12:04:22.235Z,11.66
2022-12-26T12:06:50.183Z,11.72
2022-12-26T12:09:18.073Z,11.73
2022-12-26T12:11:45.866Z,11.74
2022-12-26T12:14:14.150Z,11.75
2022-12-26T12:16:42.662Z,11.75
2022-12-26T12:19:10.559Z,11.74
2022-12-26T12:21:38.511Z,11.72
2022-12-26T12:24:06.649Z,11.70
2022-12-26T12:26:35.742Z,11.69
2022-12-26T12:29:04.116Z,11.67
2022-12-26T12:31:31.995Z,11.65
2022-12-26T12:33:59.849Z,11.63
2022-12-26T12:36:27.990Z,11.39
2022-12-26T12:38:56.746Z,11.12
2022-12-26T12:41:25.132Z,10.89
2022-12-26T12:43:53.222Z,10.71
2022-12-26T12:46:21.100Z,10.58
2022-12-26T12:48:48.953Z,10.53
2022-12-26T12:51:17.143Z,10.51
2022-12-26T12:53:45.391Z,10.53
2022-12-26T12:56:13.235Z,10.54
2022-12-26T12:58:41.167Z,10.52
2022-12-26T13:01:09.022Z,10.53
2022-12-26T13:03:37.621Z,10.57
2022-12-26T13:06:06.072Z,10.60
2022-12-26T13:08:33.974Z,10.62
2022-12-26T13:11:02.152Z,10.65
2022-12-26T13:13:30.103Z,10.70
2022-12-26T13:15:58.491Z,10.74
2022-12-26T13:18:27.036Z,10.78
2022-12-26T13:20:55.019Z,10.80
2022-12-26T13:23:40.443Z,10.83
2022-12-26T13:26:08.383Z,10.82
2022-12-26T13:28:36.177Z,10.80
2022-12-26T13:31:04.473Z,10.77
2022-12-26T13:33:32.363Z,10.76
2022-12-26T13:36:00.064Z,10.69
2022-12-26T13:38:28.787Z,10.47
2022-12-26T13:40:57.345Z,10.21
2022-12-26T13:43:42.410Z,9.98
2022-12-26T13:46:10.318Z,9.77
2022-12-26T13:48:38.324Z,9.62
2022-12-26T13:51:06.282Z,9.53
2022-12-26T13:53:34.516Z,9.46
2022-12-26T13:56:02.644Z,9.43
2022-12-26T13:58:30.541Z,9.40
2022-12-26T14:00:58.847Z,9.38
2022-12-26T14:03:27.250Z,9.36
2022-12-26T14:05:55.233Z,9.34
2022-12-26T14:08:23.015Z,9.33
2022-12-26T14:10:50.905Z,9.31
2022-12-26T14:13:20.879Z,9.31
2022-12-26T14:15:49.087Z,9.30
2022-12-26T14:18:16.815Z,9.31
2022-12-26T14:20:44.870Z,9.31
2022-12-26T14:23:12.839Z,9.32
2022-12-26T14:25:41.981Z,9.32
2022-12-26T14:28:12.879Z,9.32
2022-12-26T14:30:40.673Z,9.30
2022-12-26T14:33:09.684Z,9.30
2022-12-26T14:35:38.054Z,9.29
2022-12-26T14:38:06.057Z,9.28
2022-12-26T14:40:35.164Z,9.27
2022-12-26T14:43:11.099Z,9.27
2022-12-26T14:45:39.243Z,9.24
2022-12-26T14:48:07.131Z,9.22
2022-12-26T14:50:35.296Z,9.21
2022-12-26T14:53:03.130Z,9.22
2022-12-26T14:55:30.990Z,9.21
2022-12-26T14:57:58.878Z,9.20
2022-12-26T15:00:26.890Z,9.18
2022-12-26T15:02:55.642Z,9.16
2022-12-26T15:05:24.697Z,9.15
2022-12-26T15:07:52.597Z,9.12
2022-12-26T15:10:20.375Z,9.09
2022-12-26T15:12:51.327Z,9.06
2022-12-26T15:15:24.920Z,9.02
2022-12-26T15:17:52.941Z,8.98
2022-12-26T15:20:20.677Z,8.92
2022-12-26T15:22:48.835Z,8.88
2022-12-26T15:25:19.578Z,8.80
2022-12-26T15:27:49.102Z,8.73
2022-12-26T15:30:16.953Z,8.65
2022-12-26T15:32:44.791Z,8.60
2022-12-26T15:35:12.989Z,8.54
2022-12-26T15:37:41.635Z,8.49
2022-12-26T15:40:11.339Z,8.46
2022-12-26T15:42:39.162Z,8.41
2022-12-26T15:45:06.958Z,8.37
2022-12-26T15:47:34.910Z,8.33
2022-12-26T15:50:02.827Z,8.30
2022-12-26T15:52:31.036Z,8.27
2022-12-26T15:54:58.971Z,8.24
2022-12-26T15:57:26.717Z,8.23
2022-12-26T15:59:55.694Z,8.21
2022-12-26T16:02:23.784Z,8.18
2022-12-26T16:04:52.054Z,8.17
2022-12-26T16:07:19.809Z,8.15
2022-12-26T16:09:47.815Z,8.14
2022-12-26T16:12:16.267Z,8.09
2022-12-26T16:14:44.138Z,8.05
2022-12-26T16:17:12.456Z,7.99
2022-12-26T16:19:41.130Z,7.95
2022-12-26T16:22:29.305Z,7.90
2022-12-26T16:24:57.091Z,7.88
2022-12-26T16:27:25.309Z,7.86
2022-12-26T16:29:53.336Z,7.83
2022-12-26T16:32:21.166Z,7.81
2022-12-26T16:34:49.064Z,7.78
2022-12-26T16:37:16.963Z,7.78
2022-12-26T16:39:45.221Z,7.77
2022-12-26T16:42:13.181Z,7.75
2022-12-26T16:44:41.196Z,7.73
2022-12-26T16:47:09.084Z,7.71
2022-12-26T16:49:37.054Z,7.69
2022-12-26T16:52:05.056Z,7.68
2022-12-26T16:54:32.821Z,7.66
2022-12-26T16:57:00.698Z,7.62
2022-12-26T16:59:29.004Z,7.58
2022-12-26T17:01:57.056Z,7.53
2022-12-26T17:04:25.782Z,7.49
2022-12-26T17:06:53.771Z,7.43
2022-12-26T17:09:22.302Z,7.36
2022-12-26T17:11:51.688Z,7.24
2022-12-26T17:14:19.560Z,7.13
2022-12-26T17:16:47.692Z,7.01
2022-12-26T17:19:15.653Z,6.95
2022-12-26T17:21:43.512Z,6.89
2022-12-26T17:24:11.583Z,6.78
2022-12-26T17:26:43.202Z,6.70
2022-12-26T17:29:11.514Z,6.60
2022-12-26T17:31:39.422Z,6.51
2022-12-26T17:34:07.294Z,6.44
2022-12-26T17:37:17.147Z,6.39
2022-12-26T17:39:23.896Z,6.31
2022-12-26T17:41:51.915Z,6.27
2022-12-26T17:44:19.644Z,6.21
2022-12-26T17:46:47.631Z,6.19
2022-12-26T17:49:15.694Z,6.16
2022-12-26T17:51:50.737Z,6.13
2022-12-26T17:54:22.432Z,6.08
2022-12-26T17:56:50.388Z,6.03
2022-12-26T17:59:18.221Z,5.98
2022-12-26T18:01:46.620Z,5.95
2022-12-26T18:04:14.418Z,5.93
2022-12-26T18:06:42.397Z,5.91
2022-12-26T18:09:10.469Z,5.93
2022-12-26T18:11:38.381Z,5.95
2022-12-26T18:14:06.222Z,5.97
2022-12-26T18:16:34.203Z,5.99
2022-12-26T18:19:01.951Z,5.97
2022-12-26T18:21:30.151Z,5.95
2022-12-26T18:23:58.107Z,5.91
2022-12-26T18:26:26.394Z,5.86
2022-12-26T18:28:54.681Z,5.84
2022-12-26T18:31:22.607Z,5.85
2022-12-26T18:33:50.574Z,5.83
2022-12-26T18:36:18.535Z,5.79
2022-12-26T18:38:47.195Z,5.73
2022-12-26T18:41:15.145Z,5.67
2022-12-26T18:43:42.981Z,5.63
2022-12-26T18:46:11.182Z,5.58
2022-12-26T18:48:39.132Z,5.56
2022-12-26T18:51:07.541Z,5.57
2022-12-26T18:53:35.562Z,5.58
2022-12-26T18:56:03.366Z,5.60
2022-12-26T18:58:31.406Z,5.59
2022-12-26T19:00:59.644Z,5.58
2022-12-26T19:03:27.929Z,5.54
2022-12-26T19:05:55.953Z,5.50
2022-12-26T19:08:23.993Z,5.46
2022-12-26T19:10:51.931Z,5.42
2022-12-26T19:13:20.334Z,5.37
2022-12-26T19:15:48.657Z,5.30
2022-12-26T19:18:16.511Z,5.25
2022-12-26T19:20:44.528Z,5.21
2022-12-26T19:23:12.690Z,5.15
2022-12-26T19:25:40.544Z,5.11
2022-12-26T19:28:08.339Z,5.07
2022-12-26T19:30:38.985Z,5.03
2022-12-26T19:33:07.178Z,4.99
2022-12-26T19:35:36.719Z,4.94
2022-12-26T19:38:04.718Z,4.89
2022-12-26T19:40:32.925Z,4.88
2022-12-26T19:43:00.726Z,4.88
2022-12-26T19:45:28.606Z,4.85
2022-12-26T19:47:58.661Z,4.85
2022-12-26T19:50:26.649Z,4.87
2022-12-26T19:52:54.896Z,4.86
2022-12-26T19:55:22.734Z,4.82
2022-12-26T19:57:51.125Z,4.80
2022-12-26T20:00:19.233Z,4.77
2022-12-26T20:02:47.324Z,4.72
2022-12-26T20:05:15.771Z,4.70
2022-12-26T20:07:43.587Z,4.68
2022-12-26T20:10:11.424Z,4.66
2022-12-26T20:12:39.636Z,4.63
2022-12-26T20:15:07.660Z,4.63
2022-12-26T20:17:36.241Z,4.62
2022-12-26T20:20:04.250Z,4.60
2022-12-26T20:22:32.193Z,4.58
2022-12-26T20:25:00.415Z,4.57
2022-12-26T20:27:28.324Z,4.56
2022-12-26T20:29:56.752Z,4.54
2022-12-26T20:32:24.586Z,4.51
2022-12-26T20:34:52.749Z,4.47
2022-12-26T20:37:20.932Z,4.44
2022-12-26T20:39:48.797Z,4.39
2022-12-26T20:42:17.860Z,4.35
2022-12-26T20:44:45.707Z,4.34
2022-12-26T20:47:13.585Z,4.32
2022-12-26T20:49:42.242Z,4.30
2022-12-26T20:52:10.099Z,4.27
2022-12-26T20:54:38.187Z,4.28
2022-12-26T20:57:06.038Z,4.28
2022-12-26T20:59:33.876Z,4.26
2022-12-26T21:02:02.107Z,4.26
2022-12-26T21:04:30.611Z,4.24
2022-12-26T21:06:58.763Z,4.24
2022-12-26T21:09:26.597Z,4.22
2022-12-26T21:11:54.490Z,4.22
2022-12-26T21:14:22.833Z,4.21
2022-12-26T21:16:50.765Z,4.20
2022-12-26T21:19:18.925Z,4.21
2022-12-26T21:21:46.756Z,4.21
2022-12-26T21:24:14.777Z,4.19
2022-12-26T21:26:44.966Z,4.17
2022-12-26T21:29:12.692Z,4.15
2022-12-26T21:31:40.859Z,4.13
2022-12-26T21:34:09.044Z,4.13
2022-12-26T21:36:36.966Z,4.11
2022-12-26T21:39:04.863Z,4.11
2022-12-26T21:41:32.860Z,4.10
2022-12-26T21:44:01.202Z,4.11
2022-12-26T21:46:28.983Z,4.11
2022-12-26T21:48:56.954Z,4.10
2022-12-26T21:51:26.182Z,4.10
2022-12-26T21:54:14.095Z,4.10
2022-12-26T21:56:40.894Z,4.10
2022-12-26T21:59:26.142Z,4.12
2022-12-26T22:01:54.190Z,4.14
2022-12-26T22:04:21.412Z,4.15
2022-12-26T22:06:49.512Z,4.17
2022-12-26T22:09:17.804Z,4.18
2022-12-26T22:12:03.348Z,4.17
2022-12-26T22:14:31.945Z,4.20
2022-12-26T22:16:59.881Z,4.25
2022-12-26T22:19:27.793Z,4.33
2022-12-26T22:21:55.643Z,4.41
2022-12-26T22:24:23.517Z,4.49
2022-12-26T22:26:51.774Z,4.56
2022-12-26T22:29:20.022Z,4.60
2022-12-26T22:31:47.801Z,4.61
2022-12-26T22:34:16.584Z,4.62
2022-12-26T22:36:44.390Z,4.61
2022-12-26T22:39:12.785Z,4.58
2022-12-26T22:41:40.577Z,4.60
2022-12-26T22:44:08.452Z,4.63
2022-12-26T22:46:37.066Z,4.68
2022-12-26T22:49:04.974Z,4.72
2022-12-26T22:51:34.573Z,4.77
2022-12-26T22:54:02.271Z,4.80
2022-12-26T22:56:30.206Z,4.83
2022-12-26T22:59:00.771Z,4.82
2022-12-26T23:01:28.772Z,4.86
2022-12-26T23:03:57.250Z,4.88
2022-12-26T23:06:24.896Z,4.89
2022-12-26T23:08:53.122Z,4.89
2022-12-26T23:11:20.893Z,4.87
2022-12-26T23:13:49.293Z,4.86
2022-12-26T23:16:17.923Z,4.86
2022-12-26T23:19:02.962Z,4.85
2022-12-26T23:21:45.913Z,4.85
2022-12-26T23:24:13.802Z,4.84
2022-12-26T23:26:42.039Z,4.84
2022-12-26T23:29:27.258Z,4.82
2022-12-26T23:31:55.067Z,4.81
2022-12-26T23:34:23.183Z,4.78
2022-12-26T23:36:51.485Z,4.78
2022-12-26T23:39:19.129Z,4.78
2022-12-26T23:41:46.793Z,4.77
2022-12-26T23:44:14.503Z,4.76
2022-12-26T23:46:42.224Z,4.71
2022-12-26T23:49:10.509Z,4.65
2022-12-26T23:51:38.207Z,4.59
2022-12-26T23:54:05.884Z,4.56
2022-12-26T23:56:33.963Z,4.52
2022-12-26T23:59:01.669Z,4.47
